createdAt,value
2023-01-29T00:00:44.808Z,963.21
2023-01-29T00:01:44.816Z,963.18
2023-01-29T00:02:44.809Z,963.17
2023-01-29T00:03:44.726Z,963.19
2023-01-29T00:04:44.738Z,963.16
2023-01-29T00:05:44.713Z,963.18
2023-01-29T00:06:44.663Z,963.18
2023-01-29T00:07:44.642Z,963.15
2023-01-29T00:08:44.622Z,963.17
2023-01-29T00:09:44.603Z,963.08
2023-01-29T00:10:44.574Z,963.06
2023-01-29T00:11:44.552Z,963.07
2023-01-29T00:12:44.529Z,963.05
2023-01-29T00:13:44.509Z,963.07
2023-01-29T00:14:44.485Z,963.1
2023-01-29T00:15:44.466Z,963.09
2023-01-29T00:16:44.443Z,963.13
2023-01-29T00:17:44.433Z,963.07
2023-01-29T00:18:44.406Z,963.04
2023-01-29T00:19:44.376Z,963.04
2023-01-29T00:20:44.357Z,963.07
2023-01-29T00:21:44.358Z,963.07
2023-01-29T00:22:44.311Z,963.02
2023-01-29T00:23:44.302Z,963.06
2023-01-29T00:24:44.271Z,963.06
2023-01-29T00:25:44.253Z,963.01
2023-01-29T00:26:44.228Z,962.94
2023-01-29T00:27:44.201Z,962.91
2023-01-29T00:28:44.184Z,962.85
2023-01-29T00:29:44.156Z,962.83
2023-01-29T00:30:44.136Z,962.81
2023-01-29T00:31:44.196Z,962.83
2023-01-29T00:32:44.107Z,962.78
2023-01-29T00:33:44.067Z,962.8
2023-01-29T00:34:44.049Z,962.78
2023-01-29T00:35:44.024Z,962.78
2023-01-29T00:36:44.003Z,962.77
2023-01-29T00:37:44.006Z,962.75
2023-01-29T00:38:43.959Z,962.74
2023-01-29T00:39:47.989Z,962.67
2023-01-29T00:40:43.916Z,962.68
2023-01-29T00:41:43.892Z,962.6
2023-01-29T00:42:43.871Z,962.63
2023-01-29T00:43:43.849Z,962.52
2023-01-29T00:44:43.831Z,962.5
2023-01-29T00:45:43.805Z,962.51
2023-01-29T00:46:43.827Z,962.53
2023-01-29T00:47:43.761Z,962.53
2023-01-29T00:48:43.739Z,962.58
2023-01-29T00:49:43.723Z,962.55
2023-01-29T00:50:43.697Z,962.56
2023-01-29T00:51:43.676Z,962.6
2023-01-29T00:52:43.669Z,962.55
2023-01-29T00:53:43.653Z,962.58
2023-01-29T00:54:43.610Z,962.54
2023-01-29T00:55:43.585Z,962.58
2023-01-29T00:56:43.579Z,962.58
2023-01-29T00:57:43.541Z,962.55
2023-01-29T00:58:43.521Z,962.54
2023-01-29T00:59:43.500Z,962.52
2023-01-29T01:00:43.578Z,962.54
2023-01-29T01:01:43.497Z,962.56
2023-01-29T01:02:43.434Z,962.55
2023-01-29T01:03:43.420Z,962.54
2023-01-29T01:04:43.389Z,962.53
2023-01-29T01:05:43.370Z,962.54
2023-01-29T01:06:43.365Z,962.52
2023-01-29T01:07:43.323Z,962.54
2023-01-29T01:08:43.311Z,962.56
2023-01-29T01:09:43.304Z,962.55
2023-01-29T01:10:43.262Z,962.6
2023-01-29T01:11:43.237Z,962.58
2023-01-29T01:12:43.215Z,962.57
2023-01-29T01:13:43.191Z,962.6
2023-01-29T01:14:43.235Z,962.58
2023-01-29T01:15:43.147Z,962.58
2023-01-29T01:16:43.132Z,962.59
2023-01-29T01:17:43.105Z,962.63
2023-01-29T01:18:43.081Z,962.54
2023-01-29T01:19:43.059Z,962.56
2023-01-29T01:20:43.038Z,962.55
2023-01-29T01:21:43.019Z,962.56
2023-01-29T01:22:42.994Z,962.57
2023-01-29T01:23:42.974Z,962.59
2023-01-29T01:24:42.948Z,962.59
2023-01-29T01:25:42.959Z,962.58
2023-01-29T01:26:42.905Z,962.61
2023-01-29T01:27:42.889Z,962.64
2023-01-29T01:28:42.862Z,962.67
2023-01-29T01:29:42.847Z,962.67
2023-01-29T01:30:42.845Z,962.65
2023-01-29T01:31:42.874Z,962.61
2023-01-29T01:32:42.806Z,962.65
2023-01-29T01:33:42.757Z,962.67
2023-01-29T01:34:42.730Z,962.71
2023-01-29T01:35:42.710Z,962.66
2023-01-29T01:36:42.687Z,962.71
2023-01-29T01:37:42.670Z,962.71
2023-01-29T01:38:42.642Z,962.72
2023-01-29T01:39:42.621Z,962.73
2023-01-29T01:40:42.598Z,962.72
2023-01-29T01:41:42.607Z,962.73
2023-01-29T01:42:42.555Z,962.69
2023-01-29T01:43:42.538Z,962.71
2023-01-29T01:44:42.538Z,962.61
2023-01-29T01:45:42.581Z,962.6
2023-01-29T01:46:42.467Z,962.59
2023-01-29T01:47:42.446Z,962.55
2023-01-29T01:48:42.426Z,962.5
2023-01-29T01:49:42.403Z,962.49
2023-01-29T01:50:42.383Z,962.48
2023-01-29T01:51:42.364Z,962.51
2023-01-29T01:52:42.334Z,962.47
2023-01-29T01:53:42.313Z,962.46
2023-01-29T01:54:42.290Z,962.45
2023-01-29T01:55:42.269Z,962.44
2023-01-29T01:56:42.246Z,962.44
2023-01-29T01:57:42.253Z,962.43
2023-01-29T01:58:42.203Z,962.46
2023-01-29T01:59:42.181Z,962.44
2023-01-29T02:00:42.220Z,962.44
2023-01-29T02:01:42.136Z,962.5
2023-01-29T02:02:42.118Z,962.53
2023-01-29T02:03:42.092Z,962.53
2023-01-29T02:04:42.071Z,962.58
2023-01-29T02:05:42.050Z,962.62
2023-01-29T02:06:42.027Z,962.61
2023-01-29T02:07:42.003Z,962.58
2023-01-29T02:08:41.984Z,962.57
2023-01-29T02:09:41.959Z,962.55
2023-01-29T02:10:41.939Z,962.5
2023-01-29T02:11:41.915Z,962.48
2023-01-29T02:12:41.898Z,962.48
2023-01-29T02:13:41.896Z,962.46
2023-01-29T02:14:41.849Z,962.48
2023-01-29T02:15:41.867Z,962.48
2023-01-29T02:16:41.809Z,962.5
2023-01-29T02:17:41.827Z,962.46
2023-01-29T02:18:41.775Z,962.43
2023-01-29T02:19:41.738Z,962.44
2023-01-29T02:20:41.721Z,962.42
2023-01-29T02:21:41.707Z,962.42
2023-01-29T02:22:41.677Z,962.46
2023-01-29T02:23:41.694Z,962.44
2023-01-29T02:24:41.643Z,962.48
2023-01-29T02:25:41.605Z,962.51
2023-01-29T02:26:41.589Z,962.52
2023-01-29T02:27:41.561Z,962.56
2023-01-29T02:28:41.541Z,962.5
2023-01-29T02:29:41.540Z,962.47
2023-01-29T02:30:41.567Z,962.52
2023-01-29T02:31:41.562Z,962.52
2023-01-29T02:32:41.454Z,962.48
2023-01-29T02:33:41.437Z,962.48
2023-01-29T02:34:41.410Z,962.5
2023-01-29T02:35:41.387Z,962.48
2023-01-29T02:36:41.378Z,962.47
2023-01-29T02:37:41.338Z,962.47
2023-01-29T02:38:41.318Z,962.53
2023-01-29T02:39:41.302Z,962.54
2023-01-29T02:40:41.272Z,962.54
2023-01-29T02:41:41.249Z,962.51
2023-01-29T02:42:41.233Z,962.45
2023-01-29T02:43:41.210Z,962.47
2023-01-29T02:44:41.189Z,962.4
2023-01-29T02:45:41.220Z,962.38
2023-01-29T02:46:41.149Z,962.4
2023-01-29T02:47:41.116Z,962.35
2023-01-29T02:48:41.095Z,962.35
2023-01-29T02:49:41.071Z,962.34
2023-01-29T02:50:41.052Z,962.35
2023-01-29T02:51:41.028Z,962.35
2023-01-29T02:52:41.005Z,962.34
2023-01-29T02:53:40.987Z,962.37
2023-01-29T02:54:40.963Z,962.32
2023-01-29T02:55:40.939Z,962.37
2023-01-29T02:56:40.915Z,962.32
2023-01-29T02:57:40.898Z,962.29
2023-01-29T02:58:40.874Z,962.34
2023-01-29T02:59:40.849Z,962.34
2023-01-29T03:00:40.827Z,962.26
2023-01-29T03:01:40.837Z,962.28
2023-01-29T03:02:40.783Z,962.25
2023-01-29T03:03:40.766Z,962.26
2023-01-29T03:04:40.738Z,962.25
2023-01-29T03:05:40.716Z,962.26
2023-01-29T03:06:40.694Z,962.25
2023-01-29T03:07:40.708Z,962.28
2023-01-29T03:08:40.653Z,962.32
2023-01-29T03:09:40.657Z,962.32
2023-01-29T03:10:40.627Z,962.35
2023-01-29T03:11:40.589Z,962.34
2023-01-29T03:12:40.564Z,962.38
2023-01-29T03:13:40.548Z,962.34
2023-01-29T03:14:40.516Z,962.3
2023-01-29T03:15:40.496Z,962.24
2023-01-29T03:16:40.560Z,962.28
2023-01-29T03:17:40.858Z,962.34
2023-01-29T03:18:40.427Z,962.36
2023-01-29T03:19:40.407Z,962.44
2023-01-29T03:20:40.393Z,962.48
2023-01-29T03:21:40.361Z,962.44
2023-01-29T03:22:40.338Z,962.5
2023-01-29T03:23:40.318Z,962.49
2023-01-29T03:24:40.293Z,962.49
2023-01-29T03:25:40.273Z,962.51
2023-01-29T03:26:40.249Z,962.56
2023-01-29T03:27:40.228Z,962.59
2023-01-29T03:28:40.210Z,962.58
2023-01-29T03:29:40.183Z,962.57
2023-01-29T03:30:40.160Z,962.63
2023-01-29T03:31:40.209Z,962.65
2023-01-29T03:32:40.115Z,962.61
2023-01-29T03:50:10.360Z,962.48
2023-01-29T03:51:10.353Z,962.48
2023-01-29T03:52:10.316Z,962.58
2023-01-29T03:53:10.297Z,962.68
2023-01-29T03:54:10.267Z,962.75
2023-01-29T03:55:10.246Z,962.79
2023-01-29T03:56:10.221Z,962.72
2023-01-29T03:57:10.210Z,962.64
2023-01-29T03:58:10.205Z,962.62
2023-01-29T03:59:10.153Z,962.61
2023-01-29T04:00:10.138Z,962.58
2023-01-29T04:01:10.202Z,962.58
2023-01-29T04:02:10.085Z,962.55
2023-01-29T04:03:10.063Z,962.55
2023-01-29T04:04:10.079Z,962.58
2023-01-29T04:05:10.053Z,962.57
2023-01-29T04:06:10.195Z,962.57
2023-01-29T04:07:09.978Z,962.62
2023-01-29T04:08:09.946Z,962.55
2023-01-29T04:09:09.926Z,962.58
2023-01-29T04:10:09.903Z,962.61
2023-01-29T04:11:09.881Z,962.57
2023-01-29T04:12:09.878Z,962.58
2023-01-29T04:13:09.841Z,962.6
2023-01-29T04:14:09.819Z,962.55
2023-01-29T04:15:09.791Z,962.6
2023-01-29T04:16:09.808Z,962.61
2023-01-29T04:17:09.746Z,962.64
2023-01-29T04:18:10.765Z,962.6
2023-01-29T04:19:10.721Z,962.6
2023-01-29T04:20:10.699Z,962.59
2023-01-29T04:21:10.676Z,962.59
2023-01-29T04:22:10.677Z,962.53
2023-01-29T04:23:10.631Z,962.5
2023-01-29T04:24:10.650Z,962.47
2023-01-29T04:25:10.599Z,962.46
2023-01-29T04:26:10.592Z,962.47
2023-01-29T04:27:10.544Z,962.39
2023-01-29T04:28:10.530Z,962.41
2023-01-29T04:29:10.502Z,962.44
2023-01-29T04:30:10.477Z,962.43
2023-01-29T04:31:10.558Z,962.43
2023-01-29T04:32:10.428Z,962.43
2023-01-29T04:33:10.410Z,962.44
2023-01-29T04:34:10.389Z,962.41
2023-01-29T04:35:10.373Z,962.43
2023-01-29T04:36:10.377Z,962.41
2023-01-29T04:37:10.319Z,962.43
2023-01-29T04:38:10.297Z,962.42
2023-01-29T04:39:11.885Z,962.39
2023-01-29T04:40:10.250Z,962.39
2023-01-29T04:41:10.227Z,962.37
2023-01-29T04:42:10.207Z,962.33
2023-01-29T04:43:10.211Z,962.3
2023-01-29T04:44:10.161Z,962.28
2023-01-29T04:45:10.137Z,962.23
2023-01-29T04:46:10.147Z,962.18
2023-01-29T04:47:10.142Z,962.14
2023-01-29T04:48:10.078Z,962.17
2023-01-29T04:49:10.054Z,962.18
2023-01-29T04:50:10.033Z,962.14
2023-01-29T04:51:10.005Z,962.17
2023-01-29T04:52:09.995Z,962.08
2023-01-29T04:53:09.960Z,962.07
2023-01-29T04:54:09.982Z,962.12
2023-01-29T04:55:09.914Z,962.1
2023-01-29T04:56:09.895Z,962.1
2023-01-29T04:57:09.871Z,962.1
2023-01-29T04:58:09.847Z,962.07
2023-01-29T04:59:09.826Z,962.03
2023-01-29T05:00:09.804Z,962.09
2023-01-29T05:01:09.779Z,962.04
2023-01-29T05:02:09.761Z,961.94
2023-01-29T05:03:09.762Z,961.95
2023-01-29T05:04:09.714Z,961.89
2023-01-29T05:05:09.696Z,961.9
2023-01-29T05:06:09.667Z,961.88
2023-01-29T05:07:09.644Z,961.8
2023-01-29T05:08:09.623Z,961.78
2023-01-29T05:09:09.599Z,961.77
2023-01-29T05:10:09.581Z,961.74
2023-01-29T05:11:09.554Z,961.7
2023-01-29T05:12:09.534Z,961.73
2023-01-29T05:13:09.514Z,961.73
2023-01-29T05:14:09.495Z,961.64
2023-01-29T05:15:09.464Z,961.57
2023-01-29T05:16:09.524Z,961.59
2023-01-29T05:17:09.421Z,961.58
2023-01-29T05:18:09.399Z,961.56
2023-01-29T05:19:09.374Z,961.54
2023-01-29T05:20:09.354Z,961.56
2023-01-29T05:21:09.347Z,961.55
2023-01-29T05:22:09.329Z,961.53
2023-01-29T05:23:09.295Z,961.54
2023-01-29T05:24:09.308Z,961.53
2023-01-29T05:25:09.239Z,961.6
2023-01-29T05:26:09.219Z,961.62
2023-01-29T05:27:09.195Z,961.61
2023-01-29T05:28:09.173Z,961.61
2023-01-29T05:29:09.169Z,961.54
2023-01-29T05:30:09.130Z,961.6
2023-01-29T05:31:09.315Z,961.63
2023-01-29T05:32:09.083Z,961.66
2023-01-29T05:33:09.065Z,961.61
2023-01-29T05:34:09.038Z,961.62
2023-01-29T05:35:09.021Z,961.59
2023-01-29T05:36:08.994Z,961.6
2023-01-29T05:37:08.975Z,961.65
2023-01-29T05:38:08.949Z,961.63
2023-01-29T05:39:08.927Z,961.65
2023-01-29T05:40:08.946Z,961.61
2023-01-29T05:41:08.890Z,961.67
2023-01-29T05:42:08.874Z,961.71
2023-01-29T05:43:08.835Z,961.65
2023-01-29T05:44:08.812Z,961.73
2023-01-29T05:45:08.829Z,961.73
2023-01-29T05:46:08.767Z,961.75
2023-01-29T05:47:08.745Z,961.74
2023-01-29T05:48:08.725Z,961.76
2023-01-29T05:49:08.701Z,961.79
2023-01-29T05:50:08.675Z,961.77
2023-01-29T05:51:08.654Z,961.78
2023-01-29T05:52:08.631Z,961.77
2023-01-29T05:53:08.609Z,961.73
2023-01-29T05:54:08.585Z,961.74
2023-01-29T05:55:08.564Z,961.68
2023-01-29T05:56:08.541Z,961.65
2023-01-29T05:57:08.519Z,961.68
2023-01-29T05:58:08.495Z,961.66
2023-01-29T05:59:08.473Z,961.63
2023-01-29T06:00:08.452Z,961.62
2023-01-29T06:01:08.429Z,961.6
2023-01-29T06:02:08.453Z,961.63
2023-01-29T06:03:08.472Z,961.61
2023-01-29T06:04:08.360Z,961.58
2023-01-29T06:05:08.340Z,961.64
2023-01-29T06:06:08.315Z,961.66
2023-01-29T06:07:08.301Z,961.64
2023-01-29T06:08:08.269Z,961.65
2023-01-29T06:09:08.253Z,961.63
2023-01-29T06:10:08.222Z,961.6
2023-01-29T06:11:08.201Z,961.61
2023-01-29T06:12:08.177Z,961.58
2023-01-29T06:13:08.157Z,961.61
2023-01-29T06:14:08.134Z,961.56
2023-01-29T06:15:08.111Z,961.56
2023-01-29T06:16:08.128Z,961.53
2023-01-29T06:17:08.077Z,961.56
2023-01-29T06:18:08.042Z,961.48
2023-01-29T06:19:08.018Z,961.54
2023-01-29T06:20:07.995Z,961.56
2023-01-29T06:21:07.979Z,961.56
2023-01-29T06:22:07.953Z,961.59
2023-01-29T06:23:07.929Z,961.63
2023-01-29T06:24:07.949Z,961.67
2023-01-29T06:25:07.890Z,961.73
2023-01-29T06:26:07.861Z,961.72
2023-01-29T06:27:07.835Z,961.7
2023-01-29T06:28:07.815Z,961.72
2023-01-29T06:29:07.790Z,961.7
2023-01-29T06:30:07.775Z,961.73
2023-01-29T06:31:24.005Z,961.72
2023-01-29T06:32:07.784Z,961.68
2023-01-29T06:33:07.700Z,961.67
2023-01-29T06:34:07.680Z,961.68
2023-01-29T06:35:07.663Z,961.71
2023-01-29T06:36:07.632Z,961.69
2023-01-29T06:37:07.608Z,961.71
2023-01-29T06:38:07.589Z,961.73
2023-01-29T06:39:07.568Z,961.72
2023-01-29T06:40:07.547Z,961.73
2023-01-29T06:41:07.516Z,961.75
2023-01-29T06:42:07.497Z,961.77
2023-01-29T06:43:07.471Z,961.81
2023-01-29T06:44:07.456Z,961.82
2023-01-29T06:45:07.426Z,961.77
2023-01-29T06:46:08.314Z,961.82
2023-01-29T06:47:08.289Z,961.86
2023-01-29T06:48:08.269Z,961.85
2023-01-29T06:49:08.246Z,961.9
2023-01-29T06:50:08.225Z,961.94
2023-01-29T06:51:08.200Z,961.89
2023-01-29T06:52:08.177Z,961.87
2023-01-29T06:53:08.153Z,961.91
2023-01-29T06:54:08.136Z,961.88
2023-01-29T06:55:08.105Z,961.96
2023-01-29T06:56:08.103Z,961.96
2023-01-29T06:57:08.062Z,962.05
2023-01-29T06:58:08.042Z,962.01
2023-01-29T06:59:08.030Z,962.02
2023-01-29T07:00:07.996Z,962.01
2023-01-29T07:01:08.052Z,961.99
2023-01-29T07:02:08.011Z,962.05
2023-01-29T07:03:07.926Z,962.02
2023-01-29T07:04:07.905Z,962.03
2023-01-29T07:05:07.881Z,962
2023-01-29T07:06:07.858Z,962.04
2023-01-29T07:07:07.835Z,962.02
2023-01-29T07:08:07.815Z,962.05
2023-01-29T07:09:07.793Z,962.11
2023-01-29T07:10:07.770Z,962.11
2023-01-29T07:11:07.744Z,962.14
2023-01-29T07:12:07.723Z,962.13
2023-01-29T07:13:07.699Z,962.13
2023-01-29T07:14:07.678Z,962.13
2023-01-29T07:15:07.655Z,962.13
2023-01-29T07:16:07.762Z,962.11
2023-01-29T07:17:07.607Z,962.05
2023-01-29T07:18:07.586Z,962
2023-01-29T07:19:07.564Z,962
2023-01-29T07:20:07.539Z,962.02
2023-01-29T07:21:07.525Z,962.02
2023-01-29T07:22:07.494Z,962.03
2023-01-29T07:23:07.474Z,962
2023-01-29T07:24:07.493Z,961.98
2023-01-29T07:25:07.427Z,962
2023-01-29T07:26:07.406Z,961.96
2023-01-29T07:27:07.386Z,962
2023-01-29T07:28:07.387Z,962.02
2023-01-29T07:29:07.369Z,962.01
2023-01-29T07:30:07.321Z,961.98
2023-01-29T07:31:07.378Z,961.99
2023-01-29T07:32:07.336Z,962.05
2023-01-29T07:33:07.631Z,962.04
2023-01-29T07:34:07.233Z,962.07
2023-01-29T07:35:07.203Z,962.11
2023-01-29T07:36:07.178Z,962.1
2023-01-29T07:37:07.156Z,962.11
2023-01-29T07:38:07.132Z,962.1
2023-01-29T07:39:07.117Z,962.16
2023-01-29T07:40:07.090Z,962.15
2023-01-29T07:41:07.067Z,962.18
2023-01-29T07:42:07.042Z,962.16
2023-01-29T07:43:07.036Z,962.18
2023-01-29T07:44:06.997Z,962.22
2023-01-29T07:45:06.975Z,962.26
2023-01-29T07:46:07.046Z,962.28
2023-01-29T07:47:06.931Z,962.37
2023-01-29T07:48:06.907Z,962.36
2023-01-29T07:49:06.885Z,962.34
2023-01-29T07:50:06.861Z,962.4
2023-01-29T07:51:06.838Z,962.4
2023-01-29T07:52:06.814Z,962.41
2023-01-29T07:53:06.793Z,962.41
2023-01-29T07:54:06.769Z,962.47
2023-01-29T07:55:06.749Z,962.47
2023-01-29T07:56:06.734Z,962.5
2023-01-29T07:57:06.702Z,962.53
2023-01-29T07:58:06.677Z,962.61
2023-01-29T07:59:06.662Z,962.66
2023-01-29T08:00:06.640Z,962.68
2023-01-29T08:01:06.651Z,962.74
2023-01-29T08:02:06.635Z,962.74
2023-01-29T08:03:06.568Z,962.78
2023-01-29T08:04:06.542Z,962.79
2023-01-29T08:05:06.522Z,962.79
2023-01-29T08:06:06.506Z,962.81
2023-01-29T08:07:06.479Z,962.83
2023-01-29T08:08:07.856Z,962.8
2023-01-29T08:09:06.430Z,962.8
2023-01-29T08:10:06.423Z,962.67
2023-01-29T08:11:06.389Z,962.7
2023-01-29T08:12:06.365Z,962.68
2023-01-29T08:13:06.350Z,962.71
2023-01-29T08:14:06.323Z,962.75
2023-01-29T08:15:06.295Z,962.73
2023-01-29T08:16:06.365Z,962.73
2023-01-29T08:17:06.253Z,962.71
2023-01-29T08:18:06.232Z,962.76
2023-01-29T08:19:06.215Z,962.74
2023-01-29T08:20:06.185Z,962.82
2023-01-29T08:21:06.168Z,962.79
2023-01-29T08:22:06.144Z,962.79
2023-01-29T08:23:06.126Z,962.78
2023-01-29T08:24:06.111Z,962.77
2023-01-29T08:25:20.931Z,962.75
2023-01-29T08:26:06.055Z,962.77
2023-01-29T08:27:06.029Z,962.74
2023-01-29T08:28:06.024Z,962.67
2023-01-29T08:29:06.001Z,962.67
2023-01-29T08:30:05.964Z,962.64
2023-01-29T08:31:05.971Z,962.6
2023-01-29T08:32:06.496Z,962.61
2023-01-29T08:33:07.358Z,962.61
2023-01-29T08:34:07.337Z,962.62
2023-01-29T08:35:07.315Z,962.62
2023-01-29T08:36:07.297Z,962.66
2023-01-29T08:37:07.280Z,962.64
2023-01-29T08:38:07.250Z,962.62
2023-01-29T08:39:07.225Z,962.61
2023-01-29T08:40:07.203Z,962.58
2023-01-29T08:41:07.181Z,962.53
2023-01-29T08:42:07.166Z,962.56
2023-01-29T08:43:09.101Z,962.55
2023-01-29T08:44:07.134Z,962.49
2023-01-29T08:45:07.099Z,962.48
2023-01-29T08:46:07.160Z,962.48
2023-01-29T08:47:07.047Z,962.46
2023-01-29T08:48:07.066Z,962.44
2023-01-29T08:49:07.010Z,962.43
2023-01-29T08:50:06.984Z,962.45
2023-01-29T08:51:06.963Z,962.42
2023-01-29T08:52:06.941Z,962.39
2023-01-29T08:53:06.918Z,962.34
2023-01-29T08:54:06.903Z,962.38
2023-01-29T08:55:06.872Z,962.3
2023-01-29T08:56:06.851Z,962.28
2023-01-29T08:57:06.831Z,962.33
2023-01-29T08:58:06.816Z,962.36
2023-01-29T08:59:06.787Z,962.41
2023-01-29T09:00:06.762Z,962.48
2023-01-29T09:01:06.760Z,962.5
2023-01-29T09:02:06.745Z,962.52
2023-01-29T09:03:06.700Z,962.48
2023-01-29T09:04:06.677Z,962.47
2023-01-29T09:05:06.657Z,962.44
2023-01-29T09:06:06.636Z,962.42
2023-01-29T09:07:06.612Z,962.37
2023-01-29T09:08:06.589Z,962.3
2023-01-29T09:09:06.570Z,962.34
2023-01-29T09:10:06.546Z,962.33
2023-01-29T09:11:06.526Z,962.3
2023-01-29T09:12:06.514Z,962.32
2023-01-29T09:13:06.480Z,962.3
2023-01-29T09:14:06.459Z,962.25
2023-01-29T09:15:06.441Z,962.22
2023-01-29T09:16:06.421Z,962.24
2023-01-29T09:17:06.396Z,962.22
2023-01-29T09:18:06.372Z,962.2
2023-01-29T09:19:06.352Z,962.27
2023-01-29T09:20:06.329Z,962.29
2023-01-29T09:21:06.313Z,962.34
2023-01-29T09:22:06.286Z,962.34
2023-01-29T09:23:06.269Z,962.41
2023-01-29T09:24:06.244Z,962.36
2023-01-29T09:25:06.245Z,962.39
2023-01-29T09:26:06.201Z,962.4
2023-01-29T09:27:06.280Z,962.42
2023-01-29T09:28:06.162Z,962.5
2023-01-29T09:29:06.144Z,962.56
2023-01-29T09:30:06.114Z,962.62
2023-01-29T09:31:06.269Z,962.58
2023-01-29T09:32:06.075Z,962.56
2023-01-29T09:33:06.051Z,962.59
2023-01-29T09:34:06.029Z,962.53
2023-01-29T09:35:06.009Z,962.47
2023-01-29T09:36:05.984Z,962.44
2023-01-29T09:37:05.980Z,962.38
2023-01-29T09:38:05.943Z,962.34
2023-01-29T09:39:05.923Z,962.35
2023-01-29T09:40:05.914Z,962.29
2023-01-29T09:41:05.882Z,962.33
2023-01-29T09:42:05.859Z,962.37
2023-01-29T09:43:05.841Z,962.39
2023-01-29T09:44:05.827Z,962.47
2023-01-29T09:45:05.810Z,962.5
2023-01-29T09:46:05.820Z,962.54
2023-01-29T09:47:05.760Z,962.56
2023-01-29T09:48:05.750Z,962.55
2023-01-29T09:49:05.711Z,962.66
2023-01-29T09:50:05.739Z,962.66
2023-01-29T09:51:05.671Z,962.77
2023-01-29T09:52:05.660Z,962.78
2023-01-29T09:53:05.628Z,962.8
2023-01-29T09:54:05.642Z,962.73
2023-01-29T09:55:05.622Z,962.77
2023-01-29T09:56:05.613Z,962.78
2023-01-29T09:57:05.579Z,962.77
2023-01-29T09:58:05.558Z,962.75
2023-01-29T09:59:05.537Z,962.73
2023-01-29T10:00:05.521Z,962.72
2023-01-29T10:01:05.676Z,962.59
2023-01-29T10:02:05.627Z,962.52
2023-01-29T10:04:05.494Z,962.43
2023-01-29T10:05:05.411Z,962.39
2023-01-29T10:06:05.391Z,962.35
2023-01-29T10:07:05.370Z,962.34
2023-01-29T10:08:05.347Z,962.35
2023-01-29T10:09:05.326Z,962.35
2023-01-29T10:10:05.321Z,962.37
2023-01-29T10:11:05.285Z,962.32
2023-01-29T10:12:05.264Z,962.33
2023-01-29T10:13:05.246Z,962.3
2023-01-29T10:14:05.222Z,962.26
2023-01-29T10:15:05.205Z,962.22
2023-01-29T10:16:05.179Z,962.19
2023-01-29T10:17:05.245Z,962.2
2023-01-29T10:18:05.140Z,962.16
2023-01-29T10:19:05.117Z,962.15
2023-01-29T10:20:05.099Z,962.11
2023-01-29T10:21:05.076Z,962.11
2023-01-29T10:22:05.068Z,962.12
2023-01-29T10:23:05.039Z,962.1
2023-01-29T10:24:05.014Z,962.02
2023-01-29T10:25:04.993Z,962
2023-01-29T10:26:04.974Z,962
2023-01-29T10:27:04.951Z,961.95
2023-01-29T10:28:04.931Z,961.87
2023-01-29T10:29:04.924Z,961.85
2023-01-29T10:30:04.890Z,961.79
2023-01-29T10:31:05.026Z,961.7
2023-01-29T10:32:05.151Z,961.68
2023-01-29T10:33:04.829Z,961.61
2023-01-29T10:34:04.824Z,961.56
2023-01-29T10:35:04.790Z,961.54
2023-01-29T10:36:04.764Z,961.53
2023-01-29T10:37:04.746Z,961.49
2023-01-29T10:38:04.725Z,961.52
2023-01-29T10:39:04.703Z,961.57
2023-01-29T10:40:04.681Z,961.53
2023-01-29T10:41:04.663Z,961.55
2023-01-29T10:42:04.640Z,961.56
2023-01-29T10:43:04.620Z,961.6
2023-01-29T10:44:04.603Z,961.61
2023-01-29T10:45:04.579Z,961.62
2023-01-29T10:46:04.557Z,961.6
2023-01-29T10:47:04.594Z,961.65
2023-01-29T10:48:04.531Z,961.64
2023-01-29T10:49:04.497Z,961.66
2023-01-29T10:50:04.484Z,961.64
2023-01-29T10:51:04.458Z,961.68
2023-01-29T10:52:04.435Z,961.74
2023-01-29T10:53:04.415Z,961.8
2023-01-29T10:54:04.395Z,961.8
2023-01-29T10:55:04.398Z,961.81
2023-01-29T10:56:10.855Z,961.83
2023-01-29T10:57:04.334Z,961.84
2023-01-29T10:58:04.314Z,961.84
2023-01-29T10:59:04.305Z,961.83
2023-01-29T11:00:04.271Z,961.86
2023-01-29T11:01:04.252Z,961.9
2023-01-29T11:02:04.234Z,961.83
2023-01-29T11:03:05.242Z,961.79
2023-01-29T11:04:04.190Z,961.77
2023-01-29T11:05:04.173Z,961.77
2023-01-29T11:06:04.148Z,961.77
2023-01-29T11:07:04.173Z,961.74
2023-01-29T11:08:04.110Z,961.73
2023-01-29T11:09:04.094Z,961.72
2023-01-29T11:10:04.066Z,961.65
2023-01-29T11:11:04.050Z,961.62
2023-01-29T11:12:04.027Z,961.65
2023-01-29T11:13:04.008Z,961.61
2023-01-29T11:14:03.985Z,961.51
2023-01-29T11:15:03.979Z,961.51
2023-01-29T11:16:03.945Z,961.49
2023-01-29T11:17:03.970Z,961.47
2023-01-29T11:18:03.922Z,961.46
2023-01-29T11:19:03.886Z,961.36
2023-01-29T11:20:03.864Z,961.34
2023-01-29T11:21:03.858Z,961.34
2023-01-29T11:22:03.828Z,961.22
2023-01-29T11:23:04.079Z,961.2
2023-01-29T11:24:03.783Z,961.14
2023-01-29T11:25:03.764Z,961.06
2023-01-29T11:26:03.741Z,961.04
2023-01-29T11:27:03.726Z,961.02
2023-01-29T11:28:03.702Z,961
2023-01-29T11:29:03.685Z,961
2023-01-29T11:30:03.664Z,961
2023-01-29T11:31:03.804Z,960.94
2023-01-29T11:32:03.622Z,960.9
2023-01-29T11:33:03.602Z,960.91
2023-01-29T11:34:03.587Z,960.84
2023-01-29T11:35:03.562Z,960.84
2023-01-29T11:36:03.540Z,960.85
2023-01-29T11:37:03.520Z,960.88
2023-01-29T11:38:03.503Z,960.8
2023-01-29T11:39:03.482Z,960.79
2023-01-29T11:40:03.468Z,960.79
2023-01-29T11:41:03.444Z,960.78
2023-01-29T11:42:03.430Z,960.8
2023-01-29T11:43:03.399Z,960.79
2023-01-29T11:44:03.383Z,960.76
2023-01-29T11:45:03.374Z,960.69
2023-01-29T11:46:03.488Z,960.7
2023-01-29T11:47:03.320Z,960.67
2023-01-29T11:48:03.303Z,960.62
2023-01-29T11:49:14.213Z,960.59
2023-01-29T11:50:03.268Z,960.57
2023-01-29T11:51:05.515Z,960.57
2023-01-29T11:52:03.222Z,960.57
2023-01-29T11:53:03.202Z,960.6
2023-01-29T11:54:03.182Z,960.62
2023-01-29T11:55:03.166Z,960.6
2023-01-29T11:56:03.145Z,960.6
2023-01-29T11:57:03.528Z,960.62
2023-01-29T11:58:03.508Z,960.63
2023-01-29T11:59:03.489Z,960.6
2023-01-29T12:00:03.474Z,960.56
2023-01-29T12:01:03.446Z,960.57
2023-01-29T12:02:03.428Z,960.55
2023-01-29T12:03:03.410Z,960.47
2023-01-29T12:04:03.427Z,960.44
2023-01-29T12:05:03.390Z,960.39
2023-01-29T12:06:03.484Z,960.35
2023-01-29T12:07:03.324Z,960.38
2023-01-29T12:08:03.306Z,960.39
2023-01-29T12:09:03.287Z,960.41
2023-01-29T12:10:03.269Z,960.42
2023-01-29T12:11:03.254Z,960.45
2023-01-29T12:12:03.226Z,960.48
2023-01-29T12:13:03.203Z,960.43
2023-01-29T12:14:03.196Z,960.45
2023-01-29T12:15:03.174Z,960.37
2023-01-29T12:16:03.181Z,960.37
2023-01-29T12:17:03.123Z,960.38
2023-01-29T12:18:03.103Z,960.31
2023-01-29T12:19:03.081Z,960.29
2023-01-29T12:20:03.062Z,960.34
2023-01-29T12:21:03.041Z,960.3
2023-01-29T12:22:04.048Z,960.3
2023-01-29T12:23:03.006Z,960.29
2023-01-29T12:24:02.979Z,960.27
2023-01-29T12:25:02.974Z,960.28
2023-01-29T12:26:02.937Z,960.3
2023-01-29T12:27:02.920Z,960.3
2023-01-29T12:28:02.898Z,960.26
2023-01-29T12:29:02.878Z,960.22
2023-01-29T12:30:02.855Z,960.19
2023-01-29T12:31:02.878Z,960.19
2023-01-29T12:32:02.816Z,960.17
2023-01-29T12:33:02.799Z,960.12
2023-01-29T12:34:02.776Z,960.08
2023-01-29T12:35:02.768Z,960.09
2023-01-29T12:36:02.734Z,960.04
2023-01-29T12:37:02.713Z,960.01
2023-01-29T12:38:02.696Z,960.03
2023-01-29T12:39:02.858Z,960.06
2023-01-29T12:40:02.845Z,960.04
2023-01-29T12:41:02.822Z,960.04
2023-01-29T12:42:02.795Z,959.99
2023-01-29T12:43:02.777Z,960.03
2023-01-29T12:44:02.759Z,960.04
2023-01-29T12:45:02.750Z,960.01
2023-01-29T12:46:02.715Z,960.02
2023-01-29T12:47:02.814Z,959.99
2023-01-29T12:48:02.672Z,960.06
2023-01-29T12:49:02.664Z,960.05
2023-01-29T12:50:02.630Z,960.1